createdAt,value
2023-04-22T00:01:15.434Z,22.80
2023-04-22T00:03:44.720Z,20.85
2023-04-22T00:06:12.301Z,21.63
2023-04-22T00:08:39.248Z,21.85
2023-04-22T00:11:06.636Z,21.30
2023-04-22T00:13:33.632Z,18.88
2023-04-22T00:16:01.012Z,21.05
2023-04-22T00:18:28.145Z,20.77
2023-04-22T00:20:55.116Z,23.23
2023-04-22T00:23:22.299Z,19.25
2023-04-22T00:25:49.258Z,20.85
2023-04-22T00:28:16.139Z,21.52
2023-04-22T00:30:43.156Z,23.88
2023-04-22T00:33:10.133Z,23.45
2023-04-22T00:35:37.052Z,24.55
2023-04-22T00:38:04.222Z,24.80
2023-04-22T00:40:31.254Z,19.70
2023-04-22T00:42:59.820Z,22.55
2023-04-22T00:45:27.097Z,18.85
2023-04-22T00:47:54.954Z,23.33
2023-04-22T00:50:21.939Z,21.88
2023-04-22T00:52:50.723Z,27.40
2023-04-22T00:55:17.899Z,24.02
2023-04-22T00:57:44.927Z,23.25
2023-04-22T01:00:12.377Z,23.63
2023-04-22T01:02:58.553Z,22.55
2023-04-22T01:05:26.021Z,25.05
2023-04-22T01:07:52.992Z,24.95
2023-04-22T01:10:20.542Z,31.15
2023-04-22T01:12:47.643Z,26.58
2023-04-22T01:15:14.733Z,25.00
2023-04-22T01:17:41.919Z,25.80
2023-04-22T01:20:12.192Z,29.00
2023-04-22T01:22:45.705Z,26.35
2023-04-22T01:25:13.081Z,29.05
2023-04-22T01:27:41.159Z,29.80
2023-04-22T01:30:09.241Z,29.10
2023-04-22T01:32:36.591Z,29.33
2023-04-22T01:35:03.996Z,31.95
2023-04-22T01:37:31.181Z,30.08
2023-04-22T01:39:59.315Z,26.60
2023-04-22T01:42:26.599Z,35.72
2023-04-22T01:44:54.434Z,32.38
2023-04-22T01:47:21.552Z,29.15
2023-04-22T01:49:48.724Z,27.95
2023-04-22T01:52:17.547Z,32.70
2023-04-22T01:54:45.063Z,28.20
2023-04-22T01:57:14.270Z,32.85
2023-04-22T01:59:42.099Z,29.15
2023-04-22T02:02:09.531Z,27.75
2023-04-22T02:04:36.749Z,30.50
2023-04-22T02:07:03.896Z,32.38
2023-04-22T02:09:33.922Z,32.13
2023-04-22T02:12:01.906Z,28.38
2023-04-22T02:14:29.047Z,29.13
2023-04-22T02:16:56.341Z,30.98
2023-04-22T02:19:23.281Z,26.55
2023-04-22T02:21:50.771Z,27.65
2023-04-22T02:24:18.214Z,28.13
2023-04-22T02:26:46.108Z,26.33
2023-04-22T02:29:13.912Z,28.17
2023-04-22T02:31:40.898Z,28.08
2023-04-22T02:34:08.040Z,25.85
2023-04-22T02:36:35.069Z,27.98
2023-04-22T02:39:06.220Z,27.73
2023-04-22T02:41:35.505Z,28.00
2023-04-22T02:44:02.936Z,28.77
2023-04-22T02:46:30.086Z,24.52
2023-04-22T02:48:57.036Z,24.02
2023-04-22T02:51:24.526Z,26.52
2023-04-22T02:53:51.553Z,26.48
2023-04-22T02:56:18.942Z,27.70
2023-04-22T02:58:45.893Z,26.80
2023-04-22T03:01:13.064Z,23.80
2023-04-22T03:03:40.433Z,26.05
2023-04-22T03:06:10.606Z,23.67
2023-04-22T03:08:37.736Z,25.42
2023-04-22T03:11:05.611Z,33.03
2023-04-22T03:13:32.495Z,26.05
2023-04-22T03:15:59.615Z,26.08
2023-04-22T03:18:26.880Z,26.17
2023-04-22T03:20:54.494Z,25.33
2023-04-22T03:23:21.556Z,26.38
2023-04-22T03:25:48.789Z,24.48
2023-04-22T03:28:15.806Z,26.05
2023-04-22T03:30:42.902Z,24.88
2023-04-22T03:33:09.920Z,27.27
2023-04-22T03:35:42.277Z,23.88
2023-04-22T03:38:11.642Z,24.70
2023-04-22T03:40:38.585Z,27.20
2023-04-22T03:43:16.047Z,29.15
2023-04-22T03:45:51.682Z,27.55
2023-04-22T03:48:23.416Z,28.90
2023-04-22T03:50:52.830Z,27.95
2023-04-22T03:53:20.044Z,33.13
2023-04-22T03:55:47.301Z,29.48
2023-04-22T03:58:15.890Z,28.65
2023-04-22T04:00:43.290Z,30.02
2023-04-22T04:03:15.979Z,28.92
2023-04-22T04:05:46.142Z,28.65
2023-04-22T04:08:13.122Z,30.08
2023-04-22T04:10:41.306Z,27.38
2023-04-22T04:13:08.458Z,29.30
2023-04-22T04:15:46.066Z,32.25
2023-04-22T04:18:16.191Z,26.55
2023-04-22T04:20:43.481Z,30.83
2023-04-22T04:23:10.425Z,28.02
2023-04-22T04:25:38.890Z,29.13
2023-04-22T04:28:11.403Z,28.27
2023-04-22T04:30:41.740Z,30.58
2023-04-22T04:33:10.276Z,29.58
2023-04-22T04:35:39.397Z,28.35
2023-04-22T04:38:08.334Z,29.73
2023-04-22T04:40:37.256Z,28.95
2023-04-22T04:43:16.021Z,28.38
2023-04-22T04:45:55.070Z,30.63
2023-04-22T04:48:28.718Z,27.38
2023-04-22T04:51:04.409Z,28.50
2023-04-22T04:53:34.597Z,29.85
2023-04-22T04:56:02.493Z,29.65
2023-04-22T04:58:30.749Z,32.33
2023-04-22T05:01:10.284Z,26.95
2023-04-22T05:03:37.644Z,31.33
2023-04-22T05:06:06.002Z,32.78
2023-04-22T05:11:13.983Z,27.23
2023-04-22T05:13:45.988Z,26.60
2023-04-22T05:16:19.461Z,30.40
2023-04-22T05:18:46.694Z,23.67
2023-04-22T05:21:16.843Z,23.37
2023-04-22T05:23:45.504Z,29.70
2023-04-22T05:26:13.536Z,27.35
2023-04-22T05:28:42.725Z,28.35
2023-04-22T05:31:24.898Z,29.63
2023-04-22T05:33:55.083Z,25.23
2023-04-22T05:36:24.066Z,26.05
2023-04-22T05:38:50.981Z,25.95
2023-04-22T05:41:17.955Z,26.67
2023-04-22T05:43:46.709Z,24.75
2023-04-22T05:46:17.524Z,27.58
2023-04-22T05:48:46.849Z,23.13
2023-04-22T05:51:39.364Z,27.17
2023-04-22T05:54:07.258Z,24.27
2023-04-22T05:56:34.380Z,25.05
2023-04-22T05:59:01.509Z,21.63
2023-04-22T06:01:28.659Z,23.33
2023-04-22T06:04:00.433Z,22.70
2023-04-22T06:06:27.810Z,25.67
2023-04-22T06:08:54.753Z,22.55
2023-04-22T06:11:22.125Z,24.52
2023-04-22T06:13:49.092Z,23.15
2023-04-22T06:16:16.941Z,21.02
2023-04-22T06:18:44.018Z,23.83
2023-04-22T06:21:12.443Z,22.35
2023-04-22T06:23:40.342Z,24.05
2023-04-22T06:26:07.361Z,25.20
2023-04-22T06:28:35.980Z,20.75
2023-04-22T06:31:08.061Z,22.92
2023-04-22T06:33:35.883Z,19.55
2023-04-22T06:36:04.928Z,23.08
2023-04-22T06:38:32.749Z,21.42
2023-04-22T06:43:52.408Z,20.10
2023-04-22T06:46:39.147Z,20.92
2023-04-22T06:49:08.799Z,18.92
2023-04-22T06:51:56.308Z,22.05
2023-04-22T06:54:24.051Z,19.58
2023-04-22T06:56:52.590Z,18.92
2023-04-22T06:59:19.564Z,20.77
2023-04-22T07:01:47.396Z,17.98
2023-04-22T07:04:14.713Z,22.98
2023-04-22T07:06:43.310Z,30.38
2023-04-22T07:09:10.688Z,18.75
2023-04-22T07:11:38.821Z,19.10
2023-04-22T07:14:10.987Z,20.00
2023-04-22T07:16:39.046Z,20.17
2023-04-22T07:19:06.218Z,20.70
2023-04-22T07:21:33.871Z,15.32
2023-04-22T07:24:00.934Z,14.90
2023-04-22T07:26:27.924Z,19.42
2023-04-22T07:28:54.837Z,13.63
2023-04-22T07:31:21.921Z,15.85
2023-04-22T07:33:48.984Z,18.02
2023-04-22T07:36:16.026Z,17.92
2023-04-22T07:38:43.004Z,16.60
2023-04-22T07:41:10.101Z,17.20
2023-04-22T07:43:40.175Z,14.60
2023-04-22T07:46:07.477Z,14.85
2023-04-22T07:48:34.646Z,12.52
2023-04-22T07:51:01.890Z,13.55
2023-04-22T07:53:29.238Z,14.15
2023-04-22T07:55:56.657Z,14.75
2023-04-22T07:58:25.125Z,13.85
2023-04-22T08:00:52.524Z,13.57
2023-04-22T08:03:20.197Z,10.77
2023-04-22T08:05:47.753Z,14.48
2023-04-22T08:08:15.622Z,13.15
2023-04-22T08:10:46.087Z,13.43
2023-04-22T08:13:13.125Z,15.18
2023-04-22T08:15:40.315Z,14.80
2023-04-22T08:18:10.864Z,14.88
2023-04-22T08:20:38.649Z,14.50
2023-04-22T08:23:07.177Z,14.40
2023-04-22T08:25:35.257Z,14.77
2023-04-22T08:28:02.260Z,14.40
2023-04-22T08:30:29.482Z,12.95
2023-04-22T08:32:56.471Z,12.40
2023-04-22T08:35:24.254Z,11.30
2023-04-22T08:37:51.308Z,13.90
2023-04-22T08:40:18.408Z,14.25
2023-04-22T08:42:47.129Z,13.98
2023-04-22T08:45:16.064Z,11.70
2023-04-22T08:47:43.521Z,15.00
2023-04-22T08:50:14.014Z,14.05
2023-04-22T08:52:42.745Z,13.35
2023-04-22T08:55:09.748Z,12.95
2023-04-22T08:57:39.043Z,12.85
2023-04-22T09:02:37.649Z,17.52
2023-04-22T09:05:07.163Z,14.85
2023-04-22T09:10:02.925Z,13.40
2023-04-22T09:12:31.318Z,13.10
2023-04-22T09:14:58.482Z,11.13
2023-04-22T09:17:33.769Z,14.88
2023-04-22T09:20:02.445Z,12.30
2023-04-22T09:22:47.229Z,12.95
2023-04-22T09:25:22.591Z,12.40
2023-04-22T09:27:55.075Z,10.60
2023-04-22T09:30:29.749Z,11.93
2023-04-22T09:32:59.531Z,12.10
2023-04-22T09:35:32.181Z,9.65
2023-04-22T09:38:02.279Z,12.95
2023-04-22T09:40:31.100Z,11.55
2023-04-22T09:43:03.388Z,12.32
2023-04-22T09:45:36.650Z,11.68
2023-04-22T09:48:20.167Z,20.98
2023-04-22T09:50:50.150Z,13.15
2023-04-22T09:53:21.890Z,8.70
2023-04-22T09:55:54.677Z,10.95
2023-04-22T09:58:27.866Z,8.15
2023-04-22T10:00:58.045Z,7.65
2023-04-22T10:03:25.261Z,10.85
2023-04-22T10:05:52.611Z,5.93
2023-04-22T10:08:19.693Z,5.57
2023-04-22T10:10:46.978Z,8.40
2023-04-22T10:13:14.280Z,8.93
2023-04-22T10:15:56.775Z,4.72
2023-04-22T10:18:26.917Z,7.95
2023-04-22T10:20:55.990Z,4.18
2023-04-22T10:23:24.692Z,6.55
2023-04-22T10:25:56.167Z,5.28
2023-04-22T10:28:24.641Z,5.55
2023-04-22T10:30:52.053Z,3.95
2023-04-22T10:33:23.870Z,4.00
2023-04-22T10:36:20.161Z,5.43
2023-04-22T10:38:50.208Z,3.25
2023-04-22T10:41:22.370Z,5.10
2023-04-22T10:43:58.633Z,7.35
2023-04-22T10:46:37.189Z,5.40
2023-04-22T10:49:15.833Z,9.80
2023-04-22T10:51:44.283Z,5.55
2023-04-22T10:54:37.651Z,7.97
2023-04-22T10:57:10.300Z,7.60
2023-04-22T10:59:58.573Z,5.35
2023-04-22T11:02:26.850Z,6.13
2023-04-22T11:05:25.323Z,7.72
2023-04-22T11:10:51.298Z,5.90
2023-04-22T11:13:23.646Z,10.70
2023-04-22T11:15:54.262Z,4.85
2023-04-22T11:18:24.142Z,4.80
2023-04-22T11:20:52.491Z,4.03
2023-04-22T11:23:25.931Z,4.30
2023-04-22T11:26:01.474Z,4.22
2023-04-22T11:49:21.224Z,7.20
2023-04-22T11:52:40.020Z,8.27
2023-04-22T11:55:11.434Z,4.10
2023-04-22T11:57:38.650Z,2.83
2023-04-22T12:00:33.323Z,6.75
2023-04-22T12:03:16.995Z,5.10
2023-04-22T12:05:52.213Z,6.70
2023-04-22T12:08:31.645Z,6.85
2023-04-22T12:11:02.215Z,6.40
2023-04-22T12:13:31.536Z,8.98
2023-04-22T12:16:09.893Z,8.52
2023-04-22T12:18:38.930Z,5.70
2023-04-22T12:21:10.944Z,9.82
2023-04-22T12:23:46.994Z,5.03
2023-04-22T12:26:15.520Z,5.53
2023-04-22T12:28:44.124Z,6.60
2023-04-22T12:31:11.780Z,6.43
2023-04-22T12:33:39.396Z,4.72
2023-04-22T12:36:07.610Z,7.05
2023-04-22T12:38:38.636Z,6.90
2023-04-22T12:41:11.451Z,7.55
2023-04-22T12:43:39.533Z,6.82
2023-04-22T12:46:08.791Z,5.60
2023-04-22T12:48:39.698Z,7.63
2023-04-22T12:51:07.252Z,4.65
2023-04-22T12:53:34.819Z,7.80
2023-04-22T12:56:02.259Z,3.63
2023-04-22T12:58:29.513Z,3.67
2023-04-22T13:00:56.794Z,3.65
2023-04-22T13:03:24.372Z,2.83
2023-04-22T13:05:53.175Z,4.25
2023-04-22T13:08:20.533Z,3.47
2023-04-22T13:10:48.762Z,4.57
2023-04-22T13:13:18.451Z,4.10
2023-04-22T13:16:03.607Z,3.80
2023-04-22T13:18:31.245Z,5.72
2023-04-22T13:20:58.642Z,4.25
2023-04-22T13:23:26.119Z,2.88
2023-04-22T13:25:53.811Z,4.07
2023-04-22T13:28:20.898Z,3.05
2023-04-22T13:30:47.916Z,5.78
2023-04-22T13:33:15.058Z,3.50
2023-04-22T13:35:42.807Z,4.57
2023-04-22T13:38:09.800Z,5.68
2023-04-22T13:40:36.911Z,5.38
2023-04-22T13:43:04.426Z,4.65
2023-04-22T13:45:31.648Z,4.55
2023-04-22T13:47:58.797Z,6.22
2023-04-22T13:50:25.888Z,5.47
2023-04-22T13:52:53.548Z,5.30
2023-04-22T13:55:20.785Z,4.70
2023-04-22T13:57:48.105Z,4.82
2023-04-22T14:00:15.310Z,8.35
2023-04-22T14:02:42.350Z,12.50
2023-04-22T14:05:10.634Z,3.30
2023-04-22T14:07:37.827Z,3.05
2023-04-22T14:10:07.979Z,5.15
2023-04-22T14:12:35.215Z,3.15
2023-04-22T14:15:02.254Z,4.55
2023-04-22T14:17:32.363Z,4.72
2023-04-22T14:19:59.705Z,5.55
2023-04-22T14:22:26.810Z,4.05
2023-04-22T14:24:54.315Z,4.93
2023-04-22T14:27:21.237Z,5.13
2023-04-22T14:29:52.438Z,3.90
2023-04-22T14:32:20.714Z,7.00
2023-04-22T14:34:48.461Z,5.90
2023-04-22T14:37:15.629Z,8.05
2023-04-22T14:39:42.848Z,8.30
2023-04-22T14:42:10.126Z,8.93
2023-04-22T14:44:37.125Z,7.80
2023-04-22T14:47:04.395Z,8.02
2023-04-22T14:49:33.265Z,7.57
2023-04-22T14:52:01.602Z,9.07
2023-04-22T14:54:28.966Z,5.13
2023-04-22T14:56:56.317Z,5.18
2023-04-22T14:59:23.460Z,5.03
2023-04-22T15:01:51.238Z,8.98
2023-04-22T15:04:19.193Z,6.18
2023-04-22T15:06:46.396Z,5.45
2023-04-22T15:09:13.609Z,6.28
2023-04-22T15:11:43.725Z,6.68
2023-04-22T15:14:10.799Z,4.88
2023-04-22T15:16:37.904Z,7.32
2023-04-22T15:19:05.582Z,5.22
2023-04-22T15:21:33.354Z,6.78
2023-04-22T15:24:00.303Z,7.50
2023-04-22T15:26:27.954Z,6.53
2023-04-22T15:28:55.593Z,7.07
2023-04-22T15:31:23.012Z,11.18
2023-04-22T15:33:51.194Z,6.03
2023-04-22T15:36:21.036Z,4.60
2023-04-22T15:38:48.033Z,5.88
2023-04-22T15:41:15.952Z,6.57
2023-04-22T15:43:43.369Z,4.63
2023-04-22T15:46:10.662Z,9.10
2023-04-22T15:48:37.960Z,6.25
2023-04-22T15:51:04.934Z,8.40
2023-04-22T15:53:32.006Z,4.85
2023-04-22T15:55:58.947Z,4.43
2023-04-22T15:58:25.975Z,6.22
2023-04-22T16:00:53.088Z,9.20
2023-04-22T16:03:21.044Z,6.00
2023-04-22T16:05:48.082Z,7.90
2023-04-22T16:08:16.144Z,8.95
2023-04-22T16:10:43.216Z,5.18
2023-04-22T16:13:11.240Z,6.10
2023-04-22T16:15:38.276Z,6.55
2023-04-22T16:18:05.852Z,7.30
2023-04-22T16:20:32.890Z,7.55
2023-04-22T16:23:00.341Z,8.82
2023-04-22T16:25:28.130Z,8.43
2023-04-22T16:27:55.654Z,6.93
2023-04-22T16:30:22.997Z,12.35
2023-04-22T16:32:50.637Z,11.10
2023-04-22T16:35:17.995Z,13.18
2023-04-22T16:37:44.954Z,9.07
2023-04-22T16:40:12.361Z,6.15
2023-04-22T16:42:39.522Z,7.80
2023-04-22T16:45:07.938Z,8.45
2023-04-22T16:47:37.696Z,6.72
2023-04-22T16:50:05.388Z,7.55
2023-04-22T16:52:32.925Z,7.13
2023-04-22T16:55:00.487Z,10.07
2023-04-22T16:57:27.647Z,8.70
2023-04-22T16:59:54.884Z,7.03
2023-04-22T17:02:22.555Z,8.43
2023-04-22T17:04:51.096Z,7.45
2023-04-22T17:07:18.319Z,6.70
2023-04-22T17:09:45.238Z,9.02
2023-04-22T17:12:12.466Z,7.60
2023-04-22T17:14:39.366Z,9.50
2023-04-22T17:17:06.503Z,11.38
2023-04-22T17:19:33.753Z,7.75
2023-04-22T17:22:01.939Z,7.38
2023-04-22T17:24:47.753Z,7.30
2023-04-22T17:27:15.840Z,7.82
2023-04-22T17:29:43.217Z,8.60
2023-04-22T17:32:10.389Z,7.22
2023-04-22T17:34:37.388Z,6.30
2023-04-22T17:37:04.313Z,13.27
2023-04-22T17:39:32.517Z,8.15
2023-04-22T17:41:59.522Z,7.70
2023-04-22T17:44:26.546Z,9.00
2023-04-22T17:46:53.520Z,9.95
2023-04-22T17:49:20.662Z,6.30
2023-04-22T17:51:47.668Z,7.90
2023-04-22T17:54:15.089Z,8.23
2023-04-22T17:56:42.196Z,7.07
2023-04-22T17:59:11.401Z,8.00
2023-04-22T18:01:41.134Z,6.55
2023-04-22T18:04:08.374Z,9.25
2023-04-22T18:06:36.324Z,8.48
2023-04-22T18:09:07.025Z,9.20
2023-04-22T18:11:34.394Z,7.90
2023-04-22T18:14:01.338Z,8.50
2023-04-22T18:16:31.675Z,9.10
2023-04-22T18:19:02.230Z,7.32
2023-04-22T18:21:49.588Z,9.05
2023-04-22T18:24:20.364Z,8.13
2023-04-22T18:26:48.839Z,11.68
2023-04-22T18:29:16.538Z,10.70
2023-04-22T18:31:43.641Z,11.10
2023-04-22T18:34:13.345Z,8.98
2023-04-22T18:36:49.401Z,8.50
2023-04-22T18:41:49.385Z,8.98
2023-04-22T18:44:16.408Z,9.63
2023-04-22T18:46:43.533Z,16.70
2023-04-22T18:49:10.512Z,8.63
2023-04-22T18:51:39.269Z,10.70
2023-04-22T18:54:08.004Z,11.18
2023-04-22T18:56:34.899Z,11.27
2023-04-22T18:59:01.993Z,10.35
2023-04-22T19:01:29.076Z,11.93
2023-04-22T19:03:56.301Z,12.10
2023-04-22T19:06:23.565Z,12.88
2023-04-22T19:08:52.911Z,12.95
2023-04-22T19:13:46.907Z,12.15
2023-04-22T19:16:14.063Z,11.95
2023-04-22T19:18:42.518Z,15.60
2023-04-22T19:21:09.636Z,12.40
2023-04-22T19:23:37.042Z,14.63
2023-04-22T19:26:04.410Z,12.55
2023-04-22T19:28:31.420Z,11.90
2023-04-22T19:31:00.277Z,13.18
2023-04-22T19:35:54.397Z,11.52
2023-04-22T19:38:23.220Z,10.43
2023-04-22T19:40:50.922Z,9.32
2023-04-22T19:43:19.334Z,11.52
2023-04-22T19:45:46.599Z,10.48
2023-04-22T19:48:14.308Z,9.75
2023-04-22T19:50:43.640Z,9.63
2023-04-22T19:55:38.702Z,14.35
2023-04-22T19:58:05.969Z,8.45
2023-04-22T20:00:33.204Z,7.38
2023-04-22T20:03:00.471Z,9.05
2023-04-22T20:05:28.003Z,9.95
2023-04-22T20:07:59.770Z,8.45
2023-04-22T20:10:27.436Z,7.13
2023-04-22T20:12:54.912Z,9.45
2023-04-22T20:15:22.570Z,12.75
2023-04-22T20:17:50.297Z,10.55
2023-04-22T20:20:17.859Z,6.65
2023-04-22T20:22:45.964Z,8.82
2023-04-22T20:25:19.726Z,8.13
2023-04-22T20:27:47.075Z,9.80
2023-04-22T20:30:14.713Z,7.35
2023-04-22T20:32:42.442Z,6.90
2023-04-22T20:35:15.012Z,8.20
2023-04-22T20:37:42.966Z,8.02
2023-04-22T20:40:11.741Z,13.55
2023-04-22T20:42:39.197Z,9.45
2023-04-22T20:45:07.120Z,8.05
2023-04-22T20:47:35.405Z,10.23
2023-04-22T20:50:04.437Z,8.02
2023-04-22T20:52:32.088Z,8.55
2023-04-22T20:54:59.686Z,9.93
2023-04-22T20:57:26.683Z,7.88
2023-04-22T20:59:54.958Z,7.78
2023-04-22T21:02:22.292Z,7.85
2023-04-22T21:04:50.442Z,10.57
2023-04-22T21:07:21.368Z,8.02
2023-04-22T21:09:48.702Z,12.60
2023-04-22T21:12:18.301Z,11.10
2023-04-22T21:14:46.435Z,10.27
2023-04-22T21:17:25.181Z,9.77
2023-04-22T21:19:54.928Z,10.10
2023-04-22T21:22:24.737Z,9.27
2023-04-22T21:24:52.988Z,9.90
2023-04-22T21:27:22.164Z,8.10
2023-04-22T21:29:49.976Z,10.13
2023-04-22T21:32:20.156Z,13.40
2023-04-22T21:34:47.720Z,10.27
2023-04-22T21:37:15.947Z,10.80
2023-04-22T21:39:43.331Z,10.02
2023-04-22T21:42:10.731Z,9.02
2023-04-22T21:44:38.314Z,8.23
2023-04-22T21:47:06.518Z,10.73
2023-04-22T21:49:33.732Z,11.80
2023-04-22T21:52:01.140Z,10.13
2023-04-22T21:54:28.605Z,10.05
2023-04-22T21:56:56.944Z,9.70
2023-04-22T21:59:24.856Z,9.55
2023-04-22T22:01:52.352Z,9.80
2023-04-22T22:04:19.641Z,10.55
2023-04-22T22:06:46.943Z,10.25
2023-04-22T22:09:14.379Z,9.60
2023-04-22T22:11:41.611Z,9.43
2023-04-22T22:14:08.694Z,9.02
2023-04-22T22:16:35.958Z,12.57
2023-04-22T22:19:04.532Z,9.57
2023-04-22T22:21:33.373Z,11.43
2023-04-22T22:24:00.534Z,11.65
2023-04-22T22:26:28.032Z,12.70
2023-04-22T22:28:55.426Z,9.35
2023-04-22T22:31:22.470Z,10.00
2023-04-22T22:33:49.650Z,11.43
2023-04-22T22:36:16.556Z,10.10
2023-04-22T22:38:44.886Z,8.52
2023-04-22T22:41:11.929Z,10.00
2023-04-22T22:43:40.218Z,10.93
2023-04-22T22:46:07.527Z,8.35
2023-04-22T22:48:34.763Z,11.30
2023-04-22T22:51:01.855Z,9.63
2023-04-22T22:53:28.811Z,8.88
2023-04-22T22:55:55.853Z,11.90
2023-04-22T22:58:22.742Z,10.38
2023-04-22T23:00:49.882Z,9.40
2023-04-22T23:03:19.275Z,10.93
2023-04-22T23:05:46.973Z,9.82
2023-04-22T23:08:14.765Z,10.48
2023-04-22T23:10:42.042Z,14.70
2023-04-22T23:13:08.894Z,10.82
2023-04-22T23:15:36.547Z,10.73
2023-04-22T23:18:03.899Z,11.52
2023-04-22T23:20:31.717Z,11.43
2023-04-22T23:23:00.602Z,10.90
2023-04-22T23:25:28.417Z,10.20
2023-04-22T23:27:56.106Z,14.40
2023-04-22T23:30:23.577Z,10.82
2023-04-22T23:32:52.352Z,10.80
2023-04-22T23:35:20.575Z,11.23
2023-04-22T23:37:50.813Z,10.50
2023-04-22T23:40:18.122Z,12.63
2023-04-22T23:42:45.047Z,11.52
2023-04-22T23:45:12.276Z,11.32
2023-04-22T23:47:39.801Z,10.88
2023-04-22T23:50:07.617Z,12.50
2023-04-22T23:52:40.663Z,14.27
2023-04-22T23:55:10.284Z,12.30
2023-04-22T23:57:38.187Z,13.32
